sensor_id;sensor_type;location;lat;lon;timestamp;P1;durP1;ratioP1;P2;durP2;ratioP2
12631;SDS011;6381;45.748;12.106;2022-09-13T00:01:21;3.63;;;2.35;;
12631;SDS011;6381;45.748;12.106;2022-09-13T00:03:50;3.63;;;2.03;;
12631;SDS011;6381;45.748;12.106;2022-09-13T00:06:19;3.17;;;2.30;;
12631;SDS011;6381;45.748;12.106;2022-09-13T00:08:51;2.63;;;2.22;;
12631;SDS011;6381;45.748;12.106;2022-09-13T00:11:21;2.67;;;2.42;;
12631;SDS011;6381;45.748;12.106;2022-09-13T00:13:51;3.75;;;2.35;;
12631;SDS011;6381;45.748;12.106;2022-09-13T00:16:21;4.20;;;2.40;;
12631;SDS011;6381;45.748;12.106;2022-09-13T00:18:51;2.58;;;2.25;;
12631;SDS011;6381;45.748;12.106;2022-09-13T00:21:21;4.25;;;2.20;;
12631;SDS011;6381;45.748;12.106;2022-09-13T00:23:52;2.42;;;1.92;;
12631;SDS011;6381;45.748;12.106;2022-09-13T00:26:22;2.33;;;2.10;;
12631;SDS011;6381;45.748;12.106;2022-09-13T00:28:54;4.05;;;2.47;;
12631;SDS011;6381;45.748;12.106;2022-09-13T00:31:24;3.45;;;2.30;;
12631;SDS011;6381;45.748;12.106;2022-09-13T00:33:54;6.40;;;2.10;;
12631;SDS011;6381;45.748;12.106;2022-09-13T00:36:25;2.60;;;1.90;;
12631;SDS011;6381;45.748;12.106;2022-09-13T00:38:55;2.70;;;1.92;;
12631;SDS011;6381;45.748;12.106;2022-09-13T00:41:24;2.10;;;1.90;;
12631;SDS011;6381;45.748;12.106;2022-09-13T00:43:54;3.40;;;1.92;;
12631;SDS011;6381;45.748;12.106;2022-09-13T00:46:26;2.70;;;1.80;;
12631;SDS011;6381;45.748;12.106;2022-09-13T00:49:02;1.80;;;1.70;;
12631;SDS011;6381;45.748;12.106;2022-09-13T00:51:39;2.35;;;2.00;;
12631;SDS011;6381;45.748;12.106;2022-09-13T00:54:14;2.80;;;1.90;;
12631;SDS011;6381;45.748;12.106;2022-09-13T00:56:47;2.50;;;1.77;;
12631;SDS011;6381;45.748;12.106;2022-09-13T00:59:21;2.33;;;1.65;;
12631;SDS011;6381;45.748;12.106;2022-09-13T01:01:53;3.60;;;2.10;;
12631;SDS011;6381;45.748;12.106;2022-09-13T01:04:24;3.13;;;1.92;;
12631;SDS011;6381;45.748;12.106;2022-09-13T01:06:55;2.38;;;1.75;;
12631;SDS011;6381;45.748;12.106;2022-09-13T01:09:29;2.65;;;2.30;;
12631;SDS011;6381;45.748;12.106;2022-09-13T01:12:03;2.80;;;2.00;;
12631;SDS011;6381;45.748;12.106;2022-09-13T01:14:33;2.30;;;2.10;;
12631;SDS011;6381;45.748;12.106;2022-09-13T01:17:04;2.17;;;1.98;;
12631;SDS011;6381;45.748;12.106;2022-09-13T01:19:33;3.20;;;2.05;;
12631;SDS011;6381;45.748;12.106;2022-09-13T01:31:30;3.13;;;2.13;;
12631;SDS011;6381;45.748;12.106;2022-09-13T01:34:08;4.93;;;2.47;;
12631;SDS011;6381;45.748;12.106;2022-09-13T01:36:56;3.10;;;2.55;;
12631;SDS011;6381;45.748;12.106;2022-09-13T01:39:57;3.10;;;2.80;;
12631;SDS011;6381;45.748;12.106;2022-09-13T01:42:40;3.10;;;2.80;;
12631;SDS011;6381;45.748;12.106;2022-09-13T01:45:21;3.45;;;2.78;;
12631;SDS011;6381;45.748;12.106;2022-09-13T01:47:57;2.67;;;2.47;;
12631;SDS011;6381;45.748;12.106;2022-09-13T01:50:33;3.95;;;3.03;;
12631;SDS011;6381;45.748;12.106;2022-09-13T01:53:08;4.05;;;3.08;;
12631;SDS011;6381;45.748;12.106;2022-09-13T01:55:46;3.65;;;2.90;;
12631;SDS011;6381;45.748;12.106;2022-09-13T01:58:20;4.78;;;3.30;;
12631;SDS011;6381;45.748;12.106;2022-09-13T02:00:55;5.75;;;2.97;;
12631;SDS011;6381;45.748;12.106;2022-09-13T02:03:34;7.03;;;3.30;;
12631;SDS011;6381;45.748;12.106;2022-09-13T02:06:10;4.20;;;3.10;;
12631;SDS011;6381;45.748;12.106;2022-09-13T02:08:42;3.50;;;3.20;;
12631;SDS011;6381;45.748;12.106;2022-09-13T02:11:15;4.50;;;3.13;;
12631;SDS011;6381;45.748;12.106;2022-09-13T02:13:48;4.38;;;3.40;;
12631;SDS011;6381;45.748;12.106;2022-09-13T02:16:25;4.57;;;3.30;;
12631;SDS011;6381;45.748;12.106;2022-09-13T02:19:00;5.40;;;3.30;;
12631;SDS011;6381;45.748;12.106;2022-09-13T02:21:34;3.70;;;3.10;;
12631;SDS011;6381;45.748;12.106;2022-09-13T02:24:08;4.30;;;2.97;;
12631;SDS011;6381;45.748;12.106;2022-09-13T02:26:42;5.47;;;3.20;;
12631;SDS011;6381;45.748;12.106;2022-09-13T02:29:15;5.50;;;3.05;;
12631;SDS011;6381;45.748;12.106;2022-09-13T02:31:49;2.70;;;2.47;;
12631;SDS011;6381;45.748;12.106;2022-09-13T02:34:24;4.25;;;3.10;;
12631;SDS011;6381;45.748;12.106;2022-09-13T02:36:57;5.47;;;2.75;;
12631;SDS011;6381;45.748;12.106;2022-09-13T02:39:28;3.35;;;2.75;;
12631;SDS011;6381;45.748;12.106;2022-09-13T02:42:02;3.10;;;2.80;;
12631;SDS011;6381;45.748;12.106;2022-09-13T02:44:39;3.38;;;3.08;;
12631;SDS011;6381;45.748;12.106;2022-09-13T02:47:15;3.40;;;3.10;;
12631;SDS011;6381;45.748;12.106;2022-09-13T02:50:00;3.22;;;2.90;;
12631;SDS011;6381;45.748;12.106;2022-09-13T02:52:40;5.32;;;2.80;;
12631;SDS011;6381;45.748;12.106;2022-09-13T02:55:19;4.22;;;3.10;;
12631;SDS011;6381;45.748;12.106;2022-09-13T02:57:54;4.00;;;3.03;;
12631;SDS011;6381;45.748;12.106;2022-09-13T03:00:28;3.92;;;2.70;;
12631;SDS011;6381;45.748;12.106;2022-09-13T03:02:58;2.95;;;2.65;;
12631;SDS011;6381;45.748;12.106;2022-09-13T03:05:32;3.72;;;2.58;;
12631;SDS011;6381;45.748;12.106;2022-09-13T03:08:01;5.82;;;2.72;;
12631;SDS011;6381;45.748;12.106;2022-09-13T03:10:34;2.75;;;2.53;;
12631;SDS011;6381;45.748;12.106;2022-09-13T03:16:20;2.97;;;2.67;;
12631;SDS011;6381;45.748;12.106;2022-09-13T03:19:04;3.20;;;2.90;;
12631;SDS011;6381;45.748;12.106;2022-09-13T03:21:57;3.80;;;3.00;;
12631;SDS011;6381;45.748;12.106;2022-09-13T03:24:41;4.50;;;3.17;;
12631;SDS011;6381;45.748;12.106;2022-09-13T03:27:18;3.83;;;3.08;;
12631;SDS011;6381;45.748;12.106;2022-09-13T03:29:56;4.05;;;3.28;;
12631;SDS011;6381;45.748;12.106;2022-09-13T03:32:32;3.83;;;3.00;;
12631;SDS011;6381;45.748;12.106;2022-09-13T03:35:11;3.42;;;3.08;;
12631;SDS011;6381;45.748;12.106;2022-09-13T03:37:49;3.63;;;3.30;;
12631;SDS011;6381;45.748;12.106;2022-09-13T03:40:27;7.60;;;3.15;;
12631;SDS011;6381;45.748;12.106;2022-09-13T03:43:08;5.20;;;3.03;;
12631;SDS011;6381;45.748;12.106;2022-09-13T03:45:42;3.58;;;3.20;;
12631;SDS011;6381;45.748;12.106;2022-09-13T03:48:13;5.78;;;3.30;;
12631;SDS011;6381;45.748;12.106;2022-09-13T03:50:44;3.85;;;3.10;;
12631;SDS011;6381;45.748;12.106;2022-09-13T03:53:17;3.65;;;3.25;;
12631;SDS011;6381;45.748;12.106;2022-09-13T03:55:50;4.65;;;3.58;;
12631;SDS011;6381;45.748;12.106;2022-09-13T03:58:21;3.80;;;3.10;;
12631;SDS011;6381;45.748;12.106;2022-09-13T04:00:52;5.43;;;3.70;;
12631;SDS011;6381;45.748;12.106;2022-09-13T04:03:21;4.00;;;3.60;;
12631;SDS011;6381;45.748;12.106;2022-09-13T04:05:50;4.20;;;3.80;;
12631;SDS011;6381;45.748;12.106;2022-09-13T04:08:20;6.07;;;3.60;;
12631;SDS011;6381;45.748;12.106;2022-09-13T04:10:49;4.00;;;3.60;;
12631;SDS011;6381;45.748;12.106;2022-09-13T04:13:18;6.30;;;3.78;;
12631;SDS011;6381;45.748;12.106;2022-09-13T04:15:48;3.70;;;3.40;;
12631;SDS011;6381;45.748;12.106;2022-09-13T04:18:17;6.15;;;3.92;;
12631;SDS011;6381;45.748;12.106;2022-09-13T04:20:52;6.63;;;3.75;;
12631;SDS011;6381;45.748;12.106;2022-09-13T04:23:23;5.68;;;3.88;;
12631;SDS011;6381;45.748;12.106;2022-09-13T04:25:53;5.78;;;4.25;;
12631;SDS011;6381;45.748;12.106;2022-09-13T04:28:22;6.20;;;3.83;;
12631;SDS011;6381;45.748;12.106;2022-09-13T04:30:50;8.63;;;4.15;;
12631;SDS011;6381;45.748;12.106;2022-09-13T04:33:19;4.55;;;4.15;;
12631;SDS011;6381;45.748;12.106;2022-09-13T04:35:52;5.50;;;3.70;;
12631;SDS011;6381;45.748;12.106;2022-09-13T04:38:23;4.40;;;3.78;;
12631;SDS011;6381;45.748;12.106;2022-09-13T04:40:53;6.10;;;4.22;;
12631;SDS011;6381;45.748;12.106;2022-09-13T04:43:22;5.50;;;3.88;;
12631;SDS011;6381;45.748;12.106;2022-09-13T04:45:51;7.00;;;3.50;;
12631;SDS011;6381;45.748;12.106;2022-09-13T04:48:20;3.92;;;3.53;;
12631;SDS011;6381;45.748;12.106;2022-09-13T04:50:50;6.68;;;3.35;;
12631;SDS011;6381;45.748;12.106;2022-09-13T04:53:19;4.28;;;3.22;;
12631;SDS011;6381;45.748;12.106;2022-09-13T04:55:49;5.85;;;3.38;;
12631;SDS011;6381;45.748;12.106;2022-09-13T04:58:19;5.00;;;3.55;;
12631;SDS011;6381;45.748;12.106;2022-09-13T05:00:48;4.80;;;3.25;;
12631;SDS011;6381;45.748;12.106;2022-09-13T05:03:22;4.55;;;3.53;;
12631;SDS011;6381;45.748;12.106;2022-09-13T05:05:51;5.43;;;3.30;;
12631;SDS011;6381;45.748;12.106;2022-09-13T05:08:20;4.93;;;3.17;;
12631;SDS011;6381;45.748;12.106;2022-09-13T05:10:50;3.72;;;2.85;;
12631;SDS011;6381;45.748;12.106;2022-09-13T05:13:19;4.35;;;3.08;;
12631;SDS011;6381;45.748;12.106;2022-09-13T05:15:47;3.10;;;2.83;;
12631;SDS011;6381;45.748;12.106;2022-09-13T05:18:16;3.20;;;2.90;;
12631;SDS011;6381;45.748;12.106;2022-09-13T05:20:45;4.80;;;3.30;;
12631;SDS011;6381;45.748;12.106;2022-09-13T05:23:14;5.13;;;2.90;;
12631;SDS011;6381;45.748;12.106;2022-09-13T05:25:43;4.93;;;2.70;;
12631;SDS011;6381;45.748;12.106;2022-09-13T05:28:14;5.38;;;3.17;;
12631;SDS011;6381;45.748;12.106;2022-09-13T05:30:43;5.30;;;3.08;;
12631;SDS011;6381;45.748;12.106;2022-09-13T05:33:12;6.15;;;3.65;;
12631;SDS011;6381;45.748;12.106;2022-09-13T05:35:41;5.63;;;3.15;;
12631;SDS011;6381;45.748;12.106;2022-09-13T05:38:09;4.18;;;3.17;;
12631;SDS011;6381;45.748;12.106;2022-09-13T05:40:38;4.45;;;3.20;;
12631;SDS011;6381;45.748;12.106;2022-09-13T05:43:07;5.47;;;3.00;;
12631;SDS011;6381;45.748;12.106;2022-09-13T05:45:37;6.28;;;3.58;;
12631;SDS011;6381;45.748;12.106;2022-09-13T05:48:06;6.65;;;3.40;;
12631;SDS011;6381;45.748;12.106;2022-09-13T05:50:38;5.82;;;3.67;;
12631;SDS011;6381;45.748;12.106;2022-09-13T05:53:24;6.03;;;3.08;;
12631;SDS011;6381;45.748;12.106;2022-09-13T05:55:53;4.40;;;3.42;;
12631;SDS011;6381;45.748;12.106;2022-09-13T05:58:22;6.95;;;4.13;;
12631;SDS011;6381;45.748;12.106;2022-09-13T06:00:55;5.32;;;4.60;;
12631;SDS011;6381;45.748;12.106;2022-09-13T06:03:24;5.38;;;3.65;;
12631;SDS011;6381;45.748;12.106;2022-09-13T06:05:54;4.82;;;3.03;;
12631;SDS011;6381;45.748;12.106;2022-09-13T06:08:24;4.70;;;3.15;;
12631;SDS011;6381;45.748;12.106;2022-09-13T06:10:55;5.50;;;3.05;;
12631;SDS011;6381;45.748;12.106;2022-09-13T06:13:24;3.05;;;2.78;;
12631;SDS011;6381;45.748;12.106;2022-09-13T06:15:56;5.72;;;2.60;;
12631;SDS011;6381;45.748;12.106;2022-09-13T06:18:27;4.32;;;2.72;;
12631;SDS011;6381;45.748;12.106;2022-09-13T06:20:59;4.07;;;2.72;;
12631;SDS011;6381;45.748;12.106;2022-09-13T06:23:29;3.28;;;2.65;;
12631;SDS011;6381;45.748;12.106;2022-09-13T06:25:59;3.47;;;2.53;;
12631;SDS011;6381;45.748;12.106;2022-09-13T06:28:29;3.40;;;2.80;;
12631;SDS011;6381;45.748;12.106;2022-09-13T06:31:05;5.25;;;3.10;;
12631;SDS011;6381;45.748;12.106;2022-09-13T06:33:35;5.47;;;3.00;;
12631;SDS011;6381;45.748;12.106;2022-09-13T06:36:06;6.82;;;2.78;;
12631;SDS011;6381;45.748;12.106;2022-09-13T06:38:37;5.63;;;2.70;;
12631;SDS011;6381;45.748;12.106;2022-09-13T06:41:07;2.80;;;2.47;;
12631;SDS011;6381;45.748;12.106;2022-09-13T06:43:38;3.17;;;2.60;;
12631;SDS011;6381;45.748;12.106;2022-09-13T06:46:10;3.65;;;2.75;;
12631;SDS011;6381;45.748;12.106;2022-09-13T06:48:41;3.92;;;2.60;;
12631;SDS011;6381;45.748;12.106;2022-09-13T06:51:11;4.07;;;2.85;;
12631;SDS011;6381;45.748;12.106;2022-09-13T06:53:41;5.72;;;2.50;;
12631;SDS011;6381;45.748;12.106;2022-09-13T06:56:12;6.07;;;2.88;;
12631;SDS011;6381;45.748;12.106;2022-09-13T06:58:42;4.07;;;2.80;;
12631;SDS011;6381;45.748;12.106;2022-09-13T07:01:14;3.17;;;2.70;;
12631;SDS011;6381;45.748;12.106;2022-09-13T07:03:46;4.90;;;3.05;;
12631;SDS011;6381;45.748;12.106;2022-09-13T07:06:16;4.25;;;3.08;;
12631;SDS011;6381;45.748;12.106;2022-09-13T07:08:48;4.22;;;2.92;;
12631;SDS011;6381;45.748;12.106;2022-09-13T07:11:18;5.35;;;3.15;;
12631;SDS011;6381;45.748;12.106;2022-09-13T07:13:48;4.55;;;2.92;;
12631;SDS011;6381;45.748;12.106;2022-09-13T07:16:19;5.03;;;2.90;;
12631;SDS011;6381;45.748;12.106;2022-09-13T07:18:50;6.97;;;2.97;;
12631;SDS011;6381;45.748;12.106;2022-09-13T07:21:19;3.80;;;2.63;;
12631;SDS011;6381;45.748;12.106;2022-09-13T07:23:49;3.92;;;2.80;;
12631;SDS011;6381;45.748;12.106;2022-09-13T07:26:20;3.08;;;2.58;;
12631;SDS011;6381;45.748;12.106;2022-09-13T07:28:50;4.45;;;2.40;;
12631;SDS011;6381;45.748;12.106;2022-09-13T07:31:22;5.70;;;2.55;;
12631;SDS011;6381;45.748;12.106;2022-09-13T07:33:53;4.57;;;2.50;;
12631;SDS011;6381;45.748;12.106;2022-09-13T07:36:23;3.90;;;2.58;;
12631;SDS011;6381;45.748;12.106;2022-09-13T07:38:53;4.13;;;2.60;;
12631;SDS011;6381;45.748;12.106;2022-09-13T07:41:23;3.28;;;2.22;;
12631;SDS011;6381;45.748;12.106;2022-09-13T07:43:53;4.35;;;3.03;;
12631;SDS011;6381;45.748;12.106;2022-09-13T07:46:24;5.75;;;2.83;;
12631;SDS011;6381;45.748;12.106;2022-09-13T07:48:55;3.65;;;2.95;;
12631;SDS011;6381;45.748;12.106;2022-09-13T07:51:24;5.30;;;3.10;;
12631;SDS011;6381;45.748;12.106;2022-09-13T07:53:55;4.88;;;3.22;;
12631;SDS011;6381;45.748;12.106;2022-09-13T07:56:26;5.15;;;3.33;;
12631;SDS011;6381;45.748;12.106;2022-09-13T07:58:57;8.55;;;3.08;;
12631;SDS011;6381;45.748;12.106;2022-09-13T08:01:28;7.15;;;3.17;;
12631;SDS011;6381;45.748;12.106;2022-09-13T08:04:02;6.00;;;2.72;;
12631;SDS011;6381;45.748;12.106;2022-09-13T08:06:32;6.72;;;2.72;;
12631;SDS011;6381;45.748;12.106;2022-09-13T08:09:02;6.53;;;3.17;;
12631;SDS011;6381;45.748;12.106;2022-09-13T08:11:32;9.20;;;3.53;;
12631;SDS011;6381;45.748;12.106;2022-09-13T08:14:03;4.93;;;2.90;;
12631;SDS011;6381;45.748;12.106;2022-09-13T08:16:34;5.28;;;3.00;;
12631;SDS011;6381;45.748;12.106;2022-09-13T08:19:03;6.13;;;2.88;;
12631;SDS011;6381;45.748;12.106;2022-09-13T08:21:33;4.47;;;3.00;;
12631;SDS011;6381;45.748;12.106;2022-09-13T08:24:03;5.45;;;2.67;;
12631;SDS011;6381;45.748;12.106;2022-09-13T08:26:34;6.47;;;2.90;;
12631;SDS011;6381;45.748;12.106;2022-09-13T08:29:04;4.03;;;3.10;;
12631;SDS011;6381;45.748;12.106;2022-09-13T08:31:34;5.90;;;2.53;;
12631;SDS011;6381;45.748;12.106;2022-09-13T08:34:03;5.22;;;2.88;;
12631;SDS011;6381;45.748;12.106;2022-09-13T08:36:34;4.70;;;2.50;;
12631;SDS011;6381;45.748;12.106;2022-09-13T08:39:03;4.90;;;2.35;;
12631;SDS011;6381;45.748;12.106;2022-09-13T08:41:35;6.13;;;2.70;;
12631;SDS011;6381;45.748;12.106;2022-09-13T08:44:32;4.55;;;2.05;;
12631;SDS011;6381;45.748;12.106;2022-09-13T08:47:16;4.43;;;2.40;;
12631;SDS011;6381;45.748;12.106;2022-09-13T08:49:57;4.47;;;2.45;;
12631;SDS011;6381;45.748;12.106;2022-09-13T08:52:32;5.80;;;2.50;;
12631;SDS011;6381;45.748;12.106;2022-09-13T08:55:23;6.53;;;2.80;;
12631;SDS011;6381;45.748;12.106;2022-09-13T08:57:59;6.70;;;2.15;;
12631;SDS011;6381;45.748;12.106;2022-09-13T09:00:36;3.47;;;2.25;;
12631;SDS011;6381;45.748;12.106;2022-09-13T09:03:15;2.60;;;2.25;;
12631;SDS011;6381;45.748;12.106;2022-09-13T09:05:51;3.95;;;2.38;;
12631;SDS011;6381;45.748;12.106;2022-09-13T09:08:24;5.80;;;2.55;;
12631;SDS011;6381;45.748;12.106;2022-09-13T09:11:01;5.93;;;3.05;;
12631;SDS011;6381;45.748;12.106;2022-09-13T09:13:32;5.38;;;2.00;;
12631;SDS011;6381;45.748;12.106;2022-09-13T09:16:04;6.57;;;2.97;;
12631;SDS011;6381;45.748;12.106;2022-09-13T09:18:40;4.03;;;2.55;;
12631;SDS011;6381;45.748;12.106;2022-09-13T09:21:14;3.25;;;2.22;;
12631;SDS011;6381;45.748;12.106;2022-09-13T09:23:45;3.33;;;2.30;;
12631;SDS011;6381;45.748;12.106;2022-09-13T09:26:18;4.82;;;2.05;;
12631;SDS011;6381;45.748;12.106;2022-09-13T09:28:49;6.57;;;2.53;;
12631;SDS011;6381;45.748;12.106;2022-09-13T09:31:24;4.35;;;2.80;;
12631;SDS011;6381;45.748;12.106;2022-09-13T09:34:04;3.58;;;2.40;;
12631;SDS011;6381;45.748;12.106;2022-09-13T09:36:39;3.03;;;2.10;;
12631;SDS011;6381;45.748;12.106;2022-09-13T09:39:12;2.92;;;2.13;;
12631;SDS011;6381;45.748;12.106;2022-09-13T09:41:42;4.90;;;2.00;;
12631;SDS011;6381;45.748;12.106;2022-09-13T09:44:18;3.47;;;2.40;;
12631;SDS011;6381;45.748;12.106;2022-09-13T09:46:49;3.20;;;1.95;;
12631;SDS011;6381;45.748;12.106;2022-09-13T09:49:25;3.58;;;2.40;;
12631;SDS011;6381;45.748;12.106;2022-09-13T09:52:16;3.42;;;2.58;;
12631;SDS011;6381;45.748;12.106;2022-09-13T09:54:49;3.95;;;2.22;;
12631;SDS011;6381;45.748;12.106;2022-09-13T09:57:19;3.63;;;2.33;;
12631;SDS011;6381;45.748;12.106;2022-09-13T09:59:49;2.83;;;2.13;;
12631;SDS011;6381;45.748;12.106;2022-09-13T10:02:18;2.45;;;1.75;;
12631;SDS011;6381;45.748;12.106;2022-09-13T10:04:56;2.58;;;2.17;;
12631;SDS011;6381;45.748;12.106;2022-09-13T10:07:29;3.10;;;1.60;;
12631;SDS011;6381;45.748;12.106;2022-09-13T10:10:01;3.47;;;2.13;;
12631;SDS011;6381;45.748;12.106;2022-09-13T10:12:35;2.13;;;1.70;;
12631;SDS011;6381;45.748;12.106;2022-09-13T10:15:10;2.80;;;1.90;;
12631;SDS011;6381;45.748;12.106;2022-09-13T10:17:45;2.60;;;1.80;;
12631;SDS011;6381;45.748;12.106;2022-09-13T10:20:30;3.33;;;1.58;;
12631;SDS011;6381;45.748;12.106;2022-09-13T10:23:18;3.47;;;2.05;;
12631;SDS011;6381;45.748;12.106;2022-09-13T10:25:55;1.90;;;1.70;;
12631;SDS011;6381;45.748;12.106;2022-09-13T10:28:29;3.65;;;1.65;;
12631;SDS011;6381;45.748;12.106;2022-09-13T10:31:01;2.55;;;1.33;;
12631;SDS011;6381;45.748;12.106;2022-09-13T10:33:32;2.13;;;1.80;;
12631;SDS011;6381;45.748;12.106;2022-09-13T10:36:06;2.95;;;1.85;;
12631;SDS011;6381;45.748;12.106;2022-09-13T10:39:02;3.63;;;1.75;;
12631;SDS011;6381;45.748;12.106;2022-09-13T10:41:33;3.92;;;1.83;;
12631;SDS011;6381;45.748;12.106;2022-09-13T10:44:05;1.73;;;1.40;;
12631;SDS011;6381;45.748;12.106;2022-09-13T10:46:49;2.95;;;1.70;;
12631;SDS011;6381;45.748;12.106;2022-09-13T10:49:34;4.47;;;1.90;;
12631;SDS011;6381;45.748;12.106;2022-09-13T10:57:54;3.08;;;1.70;;
12631;SDS011;6381;45.748;12.106;2022-09-13T11:00:43;2.55;;;1.33;;
12631;SDS011;6381;45.748;12.106;2022-09-13T11:03:38;2.90;;;1.33;;
12631;SDS011;6381;45.748;12.106;2022-09-13T11:06:19;2.20;;;1.58;;
12631;SDS011;6381;45.748;12.106;2022-09-13T11:08:58;2.00;;;1.60;;
12631;SDS011;6381;45.748;12.106;2022-09-13T11:11:36;4.10;;;1.77;;
12631;SDS011;6381;45.748;12.106;2022-09-13T11:14:20;7.68;;;1.65;;
12631;SDS011;6381;45.748;12.106;2022-09-13T11:17:09;2.58;;;1.40;;
12631;SDS011;6381;45.748;12.106;2022-09-13T11:19:54;4.03;;;1.60;;
12631;SDS011;6381;45.748;12.106;2022-09-13T11:22:43;2.47;;;1.65;;
12631;SDS011;6381;45.748;12.106;2022-09-13T11:25:37;1.65;;;1.27;;
12631;SDS011;6381;45.748;12.106;2022-09-13T11:28:21;2.15;;;1.25;;
12631;SDS011;6381;45.748;12.106;2022-09-13T11:31:11;3.05;;;1.48;;
12631;SDS011;6381;45.748;12.106;2022-09-13T11:33:51;4.35;;;1.55;;
12631;SDS011;6381;45.748;12.106;2022-09-13T11:36:36;3.90;;;1.48;;
12631;SDS011;6381;45.748;12.106;2022-09-13T11:39:17;2.35;;;1.60;;
12631;SDS011;6381;45.748;12.106;2022-09-13T11:41:57;2.30;;;1.60;;
12631;SDS011;6381;45.748;12.106;2022-09-13T11:44:51;1.95;;;1.45;;
12631;SDS011;6381;45.748;12.106;2022-09-13T11:48:03;3.13;;;1.60;;
12631;SDS011;6381;45.748;12.106;2022-09-13T11:50:48;2.08;;;1.40;;
12631;SDS011;6381;45.748;12.106;2022-09-13T11:53:33;2.08;;;1.40;;
12631;SDS011;6381;45.748;12.106;2022-09-13T11:56:17;2.38;;;1.30;;
12631;SDS011;6381;45.748;12.106;2022-09-13T11:58:53;3.28;;;1.42;;
12631;SDS011;6381;45.748;12.106;2022-09-13T12:01:43;1.67;;;1.30;;
12631;SDS011;6381;45.748;12.106;2022-09-13T12:04:16;1.73;;;1.48;;
12631;SDS011;6381;45.748;12.106;2022-09-13T12:06:52;5.05;;;1.65;;
12631;SDS011;6381;45.748;12.106;2022-09-13T12:09:25;3.30;;;1.42;;
12631;SDS011;6381;45.748;12.106;2022-09-13T12:11:58;2.13;;;1.50;;
12631;SDS011;6381;45.748;12.106;2022-09-13T12:14:39;2.17;;;1.50;;
12631;SDS011;6381;45.748;12.106;2022-09-13T12:17:25;2.53;;;1.90;;
12631;SDS011;6381;45.748;12.106;2022-09-13T12:19:57;3.50;;;2.35;;
12631;SDS011;6381;45.748;12.106;2022-09-13T12:22:29;2.78;;;1.80;;
12631;SDS011;6381;45.748;12.106;2022-09-13T12:25:02;2.35;;;1.80;;
12631;SDS011;6381;45.748;12.106;2022-09-13T12:27:36;3.45;;;1.80;;
12631;SDS011;6381;45.748;12.106;2022-09-13T12:30:13;3.15;;;1.90;;
12631;SDS011;6381;45.748;12.106;2022-09-13T12:32:44;2.65;;;1.90;;
12631;SDS011;6381;45.748;12.106;2022-09-13T12:35:16;2.30;;;1.52;;
12631;SDS011;6381;45.748;12.106;2022-09-13T12:38:02;3.05;;;1.80;;
12631;SDS011;6381;45.748;12.106;2022-09-13T12:40:48;3.70;;;1.98;;
12631;SDS011;6381;45.748;12.106;2022-09-13T12:43:48;4.07;;;2.20;;
12631;SDS011;6381;45.748;12.106;2022-09-13T12:49:47;2.80;;;2.45;;
12631;SDS011;6381;45.748;12.106;2022-09-13T12:52:50;3.10;;;1.90;;
12631;SDS011;6381;45.748;12.106;2022-09-13T12:55:41;3.80;;;2.13;;
12631;SDS011;6381;45.748;12.106;2022-09-13T12:58:29;2.40;;;2.20;;
12631;SDS011;6381;45.748;12.106;2022-09-13T13:01:11;2.65;;;1.92;;
12631;SDS011;6381;45.748;12.106;2022-09-13T13:03:47;2.83;;;1.80;;
12631;SDS011;6381;45.748;12.106;2022-09-13T13:06:28;3.22;;;2.22;;
12631;SDS011;6381;45.748;12.106;2022-09-13T13:09:03;3.55;;;1.80;;
12631;SDS011;6381;45.748;12.106;2022-09-13T13:11:41;2.67;;;2.28;;
12631;SDS011;6381;45.748;12.106;2022-09-13T13:14:27;3.67;;;2.10;;
12631;SDS011;6381;45.748;12.106;2022-09-13T13:23:20;2.83;;;2.58;;
12631;SDS011;6381;45.748;12.106;2022-09-13T13:26:06;3.97;;;2.70;;
12631;SDS011;6381;45.748;12.106;2022-09-13T13:31:42;4.30;;;2.65;;
12631;SDS011;6381;45.748;12.106;2022-09-13T13:34:42;3.53;;;2.58;;
12631;SDS011;6381;45.748;12.106;2022-09-13T13:37:32;3.92;;;2.38;;
12631;SDS011;6381;45.748;12.106;2022-09-13T13:40:24;3.33;;;2.30;;
12631;SDS011;6381;45.748;12.106;2022-09-13T13:45:55;3.28;;;2.40;;
12631;SDS011;6381;45.748;12.106;2022-09-13T13:48:35;4.03;;;2.22;;
12631;SDS011;6381;45.748;12.106;2022-09-13T13:51:15;4.10;;;2.42;;
12631;SDS011;6381;45.748;12.106;2022-09-13T13:53:48;5.95;;;2.85;;
12631;SDS011;6381;45.748;12.106;2022-09-13T13:56:30;3.33;;;2.95;;
12631;SDS011;6381;45.748;12.106;2022-09-13T13:59:18;5.20;;;2.85;;
12631;SDS011;6381;45.748;12.106;2022-09-13T14:01:54;6.57;;;3.30;;
12631;SDS011;6381;45.748;12.106;2022-09-13T14:04:37;3.95;;;2.85;;
12631;SDS011;6381;45.748;12.106;2022-09-13T14:07:22;3.38;;;2.88;;
12631;SDS011;6381;45.748;12.106;2022-09-13T14:10:13;4.60;;;3.13;;
12631;SDS011;6381;45.748;12.106;2022-09-13T14:12:51;3.72;;;2.70;;
12631;SDS011;6381;45.748;12.106;2022-09-13T14:15:36;6.05;;;3.55;;
12631;SDS011;6381;45.748;12.106;2022-09-13T14:21:22;6.70;;;2.70;;
12631;SDS011;6381;45.748;12.106;2022-09-13T14:24:06;4.70;;;3.30;;
12631;SDS011;6381;45.748;12.106;2022-09-13T14:26:42;4.45;;;2.80;;
12631;SDS011;6381;45.748;12.106;2022-09-13T14:29:14;4.80;;;2.90;;
12631;SDS011;6381;45.748;12.106;2022-09-13T14:31:46;3.92;;;2.70;;
12631;SDS011;6381;45.748;12.106;2022-09-13T14:34:19;4.47;;;3.25;;
12631;SDS011;6381;45.748;12.106;2022-09-13T14:36:50;3.13;;;2.50;;
12631;SDS011;6381;45.748;12.106;2022-09-13T14:39:20;5.13;;;2.53;;
12631;SDS011;6381;45.748;12.106;2022-09-13T14:41:56;3.38;;;2.47;;
12631;SDS011;6381;45.748;12.106;2022-09-13T14:44:28;3.92;;;2.72;;
12631;SDS011;6381;45.748;12.106;2022-09-13T14:46:59;4.38;;;2.50;;
12631;SDS011;6381;45.748;12.106;2022-09-13T14:49:34;4.15;;;2.70;;
12631;SDS011;6381;45.748;12.106;2022-09-13T14:52:14;4.38;;;3.22;;
12631;SDS011;6381;45.748;12.106;2022-09-13T14:54:51;4.90;;;3.08;;
12631;SDS011;6381;45.748;12.106;2022-09-13T14:57:25;5.20;;;3.05;;
12631;SDS011;6381;45.748;12.106;2022-09-13T14:59:58;4.47;;;3.08;;
12631;SDS011;6381;45.748;12.106;2022-09-13T15:02:30;5.55;;;3.30;;
12631;SDS011;6381;45.748;12.106;2022-09-13T15:05:03;3.75;;;3.00;;
12631;SDS011;6381;45.748;12.106;2022-09-13T15:07:36;4.20;;;3.13;;
12631;SDS011;6381;45.748;12.106;2022-09-13T15:10:07;4.13;;;2.90;;
12631;SDS011;6381;45.748;12.106;2022-09-13T15:12:48;4.07;;;3.13;;
12631;SDS011;6381;45.748;12.106;2022-09-13T15:15:25;4.40;;;2.90;;
12631;SDS011;6381;45.748;12.106;2022-09-13T15:18:01;5.82;;;3.03;;
12631;SDS011;6381;45.748;12.106;2022-09-13T15:20:43;4.00;;;2.60;;
12631;SDS011;6381;45.748;12.106;2022-09-13T15:23:15;6.35;;;3.05;;
12631;SDS011;6381;45.748;12.106;2022-09-13T15:25:46;5.03;;;2.58;;
12631;SDS011;6381;45.748;12.106;2022-09-13T15:28:25;4.50;;;3.00;;
12631;SDS011;6381;45.748;12.106;2022-09-13T15:30:57;4.85;;;2.58;;
12631;SDS011;6381;45.748;12.106;2022-09-13T15:33:29;6.22;;;2.40;;
12631;SDS011;6381;45.748;12.106;2022-09-13T15:38:59;5.43;;;2.78;;
12631;SDS011;6381;45.748;12.106;2022-09-13T15:41:30;3.08;;;1.95;;
12631;SDS011;6381;45.748;12.106;2022-09-13T15:44:01;2.63;;;2.00;;
12631;SDS011;6381;45.748;12.106;2022-09-13T15:46:33;2.40;;;2.00;;
12631;SDS011;6381;45.748;12.106;2022-09-13T15:49:15;2.67;;;1.85;;
12631;SDS011;6381;45.748;12.106;2022-09-13T15:51:45;3.30;;;1.92;;
12631;SDS011;6381;45.748;12.106;2022-09-13T15:54:15;3.38;;;1.77;;
12631;SDS011;6381;45.748;12.106;2022-09-13T15:56:45;2.92;;;1.70;;
12631;SDS011;6381;45.748;12.106;2022-09-13T15:59:17;1.92;;;1.40;;
12631;SDS011;6381;45.748;12.106;2022-09-13T16:01:50;3.25;;;1.63;;
12631;SDS011;6381;45.748;12.106;2022-09-13T16:04:19;2.03;;;1.50;;
12631;SDS011;6381;45.748;12.106;2022-09-13T16:06:48;2.00;;;1.65;;
12631;SDS011;6381;45.748;12.106;2022-09-13T16:09:17;1.98;;;1.40;;
12631;SDS011;6381;45.748;12.106;2022-09-13T16:11:48;2.13;;;1.40;;
12631;SDS011;6381;45.748;12.106;2022-09-13T16:14:18;2.78;;;1.40;;